Time;durP1;ratioP1;P1;durP2;ratioP2;P2;SDS_P1;SDS_P2;PMS_P1;PMS_P2;Temp;Humidity;BMP_temperature;BMP_pressure;BME280_temperature;BME280_humidity;BME280_pressure;Samples;Min_cycle;Max_cycle;Signal;HPM_P1;HPM_P2
2023/09/16 00:01:03;;;;;;;1.88;1.30;;;24.90;47.20;;;;;;5010580;28;20445;-51
2023/09/16 00:03:29;;;;;;;1.50;1.08;;;24.90;47.20;;;;;;5028191;28;20034;-54
2023/09/16 00:05:56;;;;;;;1.95;1.30;;;24.90;47.20;;;;;;5029756;28;20417;-51
2023/09/16 00:08:22;;;;;;;2.03;1.35;;;24.90;47.20;;;;;;5030547;28;20021;-53
2023/09/16 00:10:48;;;;;;;2.47;1.20;;;24.90;47.20;;;;;;5010485;28;20034;-54
2023/09/16 00:13:14;;;;;;;1.40;1.20;;;24.90;47.20;;;;;;5027759;28;20479;-53
2023/09/16 00:15:45;;;;;;;1.48;1.00;;;24.90;47.30;;;;;;5029112;28;20066;-53
2023/09/16 00:18:11;;;;;;;2.13;1.17;;;24.90;47.30;;;;;;5025677;28;20449;-51
2023/09/16 00:20:37;;;;;;;1.50;1.20;;;24.80;47.30;;;;;;5011108;28;20029;-51
2023/09/16 00:23:04;;;;;;;1.75;1.20;;;24.90;47.40;;;;;;5028202;28;20092;-49
2023/09/16 00:25:30;;;;;;;2.45;1.27;;;24.90;47.40;;;;;;5030532;28;20103;-54
2023/09/16 00:27:56;;;;;;;1.50;1.20;;;24.90;47.40;;;;;;5010348;28;20104;-50
2023/09/16 00:30:22;;;;;;;1.52;1.13;;;24.90;47.40;;;;;;5027088;28;20381;-52
2023/09/16 00:32:48;;;;;;;1.60;1.00;;;24.90;47.50;;;;;;5016875;28;20116;-50
2023/09/16 00:35:13;;;;;;;2.03;1.23;;;24.90;47.50;;;;;;5034992;28;20116;-50
2023/09/16 00:37:41;;;;;;;1.83;1.42;;;24.90;47.50;;;;;;5014766;28;20056;-55
2023/09/16 00:40:07;;;;;;;1.55;1.10;;;24.80;47.50;;;;;;5011309;28;20036;-54
2023/09/16 00:42:37;;;;;;;2.83;1.20;;;24.90;47.60;;;;;;5011591;28;20037;-54
2023/09/16 00:45:06;;;;;;;1.70;1.27;;;24.80;47.50;;;;;;5003315;28;20136;-52
2023/09/16 00:47:33;;;;;;;1.40;1.20;;;24.80;47.60;;;;;;5031927;28;20033;-50
2023/09/16 00:50:00;;;;;;;1.55;1.08;;;24.80;47.60;;;;;;5032456;28;20421;-52
2023/09/16 00:52:26;;;;;;;1.80;1.23;;;24.80;47.70;;;;;;5028022;28;20053;-55
2023/09/16 00:54:54;;;;;;;2.22;1.15;;;24.80;47.70;;;;;;5013143;28;20052;-52
2023/09/16 00:57:20;;;;;;;1.80;1.10;;;24.80;47.70;;;;;;4991981;28;20042;-50
2023/09/16 00:59:46;;;;;;;1.38;1.20;;;24.80;47.70;;;;;;5016175;28;20046;-49
2023/09/16 01:02:14;;;;;;;3.00;1.50;;;24.80;47.70;;;;;;5030860;28;20116;-52
2023/09/16 01:04:41;;;;;;;3.00;1.13;;;24.80;47.80;;;;;;5043323;28;20041;-47
2023/09/16 01:07:07;;;;;;;1.92;1.40;;;24.80;47.80;;;;;;5030649;28;20041;-51
2023/09/16 01:09:34;;;;;;;2.28;1.40;;;24.80;47.80;;;;;;5030221;28;20077;-51
2023/09/16 01:11:59;;;;;;;1.35;1.08;;;24.80;47.80;;;;;;5030551;28;20030;-51
2023/09/16 01:14:26;;;;;;;2.22;1.10;;;24.80;47.90;;;;;;5008365;28;20029;-52
2023/09/16 01:17:17;;;;;;;1.50;1.10;;;24.80;47.90;;;;;;5028556;28;20070;-53
2023/09/16 01:19:56;;;;;;;2.33;1.13;;;24.80;47.90;;;;;;5005707;28;20200;-48
2023/09/16 01:22:22;;;;;;;1.90;1.50;;;24.80;47.90;;;;;;5028711;28;20060;-47
2023/09/16 01:24:57;;;;;;;1.27;0.95;;;24.80;47.90;;;;;;5029206;28;20038;-54
2023/09/16 01:27:23;;;;;;;2.05;1.40;;;24.80;48.00;;;;;;5012593;28;20125;-50
2023/09/16 01:29:50;;;;;;;1.52;1.20;;;24.70;47.90;;;;;;5011025;28;20036;-51
2023/09/16 01:32:21;;;;;;;2.47;1.30;;;24.80;48.00;;;;;;5015242;28;20036;-50
2023/09/16 01:34:52;;;;;;;1.60;1.15;;;24.70;48.00;;;;;;5033649;28;20021;-51
2023/09/16 01:37:21;;;;;;;2.00;1.20;;;24.70;48.00;;;;;;5010820;28;20043;-50
2023/09/16 01:39:56;;;;;;;2.22;1.30;;;24.70;48.00;;;;;;5033087;28;20121;-51
2023/09/16 01:42:24;;;;;;;1.70;1.13;;;24.70;48.10;;;;;;5025582;28;20076;-51
2023/09/16 01:44:54;;;;;;;1.67;1.20;;;24.70;48.10;;;;;;5013351;28;20121;-51
2023/09/16 01:47:21;;;;;;;1.77;1.27;;;24.70;48.10;;;;;;5033902;28;20058;-54
2023/09/16 01:49:47;;;;;;;1.58;1.30;;;24.70;48.20;;;;;;5015781;28;20023;-51
2023/09/16 01:52:16;;;;;;;2.85;1.50;;;24.70;48.20;;;;;;5030789;28;20083;-49
2023/09/16 01:54:42;;;;;;;2.67;1.60;;;24.70;48.20;;;;;;5011893;28;20025;-52
2023/09/16 01:57:08;;;;;;;1.90;1.30;;;24.70;48.20;;;;;;5025721;28;20033;-52
2023/09/16 01:59:34;;;;;;;1.65;1.38;;;24.70;48.20;;;;;;4996675;28;20033;-47
2023/09/16 02:02:00;;;;;;;2.63;1.30;;;24.70;48.20;;;;;;5013488;28;20480;-46
2023/09/16 02:04:26;;;;;;;1.98;1.40;;;24.70;48.20;;;;;;5026854;28;20360;-48
2023/09/16 02:06:52;;;;;;;1.88;1.38;;;24.70;48.20;;;;;;5012593;28;20033;-51
2023/09/16 02:09:18;;;;;;;1.75;1.40;;;24.70;48.20;;;;;;5013323;28;20124;-52
2023/09/16 02:11:44;;;;;;;1.98;1.50;;;24.70;48.20;;;;;;5011726;28;20025;-52
2023/09/16 02:14:12;;;;;;;1.50;1.30;;;24.70;48.20;;;;;;5012632;28;20116;-47
2023/09/16 02:16:38;;;;;;;2.88;1.58;;;24.70;48.20;;;;;;5011852;28;20042;-52
2023/09/16 02:19:05;;;;;;;2.15;1.70;;;24.70;48.20;;;;;;5018324;28;20207;-50
2023/09/16 02:21:31;;;;;;;2.40;1.70;;;24.70;48.20;;;;;;5011262;28;20037;-52
2023/09/16 02:23:58;;;;;;;1.85;1.50;;;24.70;48.20;;;;;;5032383;28;20076;-50
2023/09/16 02:26:24;;;;;;;2.33;1.50;;;24.70;48.20;;;;;;5027235;28;20386;-55
2023/09/16 02:28:50;;;;;;;2.25;1.48;;;24.70;48.20;;;;;;5031453;28;20155;-52
2023/09/16 02:31:17;;;;;;;2.38;1.48;;;24.70;48.20;;;;;;5008748;28;20029;-51
2023/09/16 02:33:42;;;;;;;2.30;1.42;;;24.70;48.30;;;;;;5030777;28;20036;-50
2023/09/16 02:36:08;;;;;;;1.48;1.20;;;24.70;48.30;;;;;;5015011;28;20040;-55
2023/09/16 02:38:34;;;;;;;2.20;1.58;;;24.60;48.30;;;;;;5007143;28;20105;-55
2023/09/16 02:41:04;;;;;;;2.08;1.55;;;24.60;48.30;;;;;;5011836;28;20076;-51
2023/09/16 02:43:33;;;;;;;1.73;1.33;;;24.60;48.40;;;;;;5012230;28;20463;-50
2023/09/16 02:45:59;;;;;;;1.95;1.60;;;24.60;48.40;;;;;;5012087;28;20037;-48
2023/09/16 02:48:25;;;;;;;1.70;1.40;;;24.60;48.40;;;;;;4994964;28;20043;-50
2023/09/16 02:50:51;;;;;;;2.55;1.35;;;24.60;48.40;;;;;;4990919;28;20030;-50
2023/09/16 02:53:17;;;;;;;3.00;1.60;;;24.60;48.40;;;;;;4989119;28;20373;-54
2023/09/16 02:55:43;;;;;;;2.47;1.63;;;24.60;48.40;;;;;;4988372;28;20030;-51
2023/09/16 02:58:10;;;;;;;2.28;1.52;;;24.60;48.40;;;;;;4988318;28;20023;-50
2023/09/16 03:00:36;;;;;;;2.53;1.75;;;24.60;48.40;;;;;;4987227;28;20037;-52
2023/09/16 03:03:02;;;;;;;2.47;1.63;;;24.60;48.40;;;;;;5004119;28;20038;-45
2023/09/16 03:05:29;;;;;;;2.97;1.77;;;24.60;48.40;;;;;;4987691;28;20433;-50
2023/09/16 03:07:55;;;;;;;2.78;1.70;;;24.60;48.50;;;;;;4989422;28;20069;-50
2023/09/16 03:10:21;;;;;;;3.55;1.70;;;24.60;48.40;;;;;;4991516;28;20049;-53
2023/09/16 03:12:47;;;;;;;1.83;1.60;;;24.60;48.50;;;;;;4991263;28;20055;-49
2023/09/16 03:15:14;;;;;;;1.88;1.40;;;24.60;48.50;;;;;;4989975;28;20124;-50
2023/09/16 03:17:39;;;;;;;1.90;1.40;;;24.60;48.50;;;;;;4992837;28;20062;-53
2023/09/16 03:20:06;;;;;;;2.20;1.60;;;24.60;48.50;;;;;;4992641;28;20120;-52
2023/09/16 03:22:32;;;;;;;2.63;1.60;;;24.60;48.50;;;;;;4994909;28;20077;-54
2023/09/16 03:24:58;;;;;;;2.67;1.70;;;24.60;48.50;;;;;;4987647;28;20102;-53
2023/09/16 03:27:24;;;;;;;2.03;1.42;;;24.60;48.80;;;;;;4989671;28;20044;-51
2023/09/16 03:29:50;;;;;;;3.17;1.75;;;24.60;48.50;;;;;;4984897;28;20022;-47
2023/09/16 03:32:15;;;;;;;4.25;1.65;;;24.60;48.50;;;;;;4989144;28;20074;-48
2023/09/16 03:34:41;;;;;;;1.98;1.60;;;24.60;48.50;;;;;;4991657;28;20126;-50
2023/09/16 03:37:07;;;;;;;2.30;1.80;;;24.50;48.50;;;;;;4987086;28;20030;-50
2023/09/16 03:39:33;;;;;;;2.03;1.60;;;24.60;48.60;;;;;;5002045;28;20111;-45
2023/09/16 03:41:59;;;;;;;2.10;1.50;;;24.50;48.50;;;;;;4983886;28;20177;-48
2023/09/16 03:44:25;;;;;;;2.42;1.50;;;24.50;48.50;;;;;;4973357;28;20122;-53
2023/09/16 03:46:52;;;;;;;1.92;1.50;;;24.50;48.50;;;;;;4986931;28;20022;-47
2023/09/16 03:49:18;;;;;;;2.33;1.70;;;24.60;48.50;;;;;;4986862;28;20053;-48
2023/09/16 03:51:45;;;;;;;2.28;1.40;;;24.50;48.50;;;;;;4995586;28;20021;-52
2023/09/16 03:54:13;;;;;;;2.33;1.60;;;24.50;48.50;;;;;;4988743;28;20030;-49
2023/09/16 03:56:40;;;;;;;2.10;1.63;;;24.50;48.50;;;;;;4986114;28;20071;-49
2023/09/16 03:59:09;;;;;;;2.17;1.77;;;24.50;49.30;;;;;;5017253;28;20050;-48
2023/09/16 04:01:36;;;;;;;2.17;1.55;;;24.50;48.70;;;;;;4993021;28;20432;-50
2023/09/16 04:04:01;;;;;;;2.30;1.98;;;24.50;48.70;;;;;;4996251;28;20101;-49
2023/09/16 04:06:30;;;;;;;2.10;1.42;;;24.50;48.60;;;;;;4992329;28;20060;-49
2023/09/16 04:08:56;;;;;;;1.95;1.52;;;24.50;48.60;;;;;;4994981;28;20386;-45
2023/09/16 04:11:21;;;;;;;2.13;1.42;;;24.50;48.70;;;;;;5006200;28;20034;-49
2023/09/16 04:13:47;;;;;;;2.03;1.50;;;24.50;48.60;;;;;;4994888;28;21809;-52
2023/09/16 04:16:14;;;;;;;1.85;1.63;;;24.50;48.60;;;;;;4999302;28;20488;-54
2023/09/16 04:18:40;;;;;;;2.40;1.60;;;24.50;48.70;;;;;;4995798;28;20125;-50
2023/09/16 04:21:06;;;;;;;3.00;1.90;;;24.50;48.60;;;;;;5000972;28;20288;-49
2023/09/16 04:23:35;;;;;;;2.38;1.60;;;24.50;48.70;;;;;;5002999;28;20101;-49
2023/09/16 04:26:05;;;;;;;2.15;1.60;;;24.50;48.70;;;;;;4978781;28;20082;-49
2023/09/16 04:28:31;;;;;;;2.13;1.58;;;24.50;48.70;;;;;;4999970;28;20025;-50
2023/09/16 04:30:58;;;;;;;2.45;1.60;;;24.40;48.60;;;;;;5005411;28;20036;-54
2023/09/16 04:33:28;;;;;;;2.65;1.83;;;24.50;48.70;;;;;;4996290;28;20394;-53
2023/09/16 04:35:56;;;;;;;2.30;1.52;;;24.50;48.70;;;;;;5017339;28;20140;-53
2023/09/16 04:38:23;;;;;;;1.63;1.52;;;24.40;48.60;;;;;;5013207;28;20132;-53
2023/09/16 04:40:53;;;;;;;1.92;1.65;;;24.50;48.60;;;;;;4997535;28;20073;-51
2023/09/16 04:43:20;;;;;;;3.20;1.63;;;24.50;48.60;;;;;;4998654;28;20042;-55
2023/09/16 04:45:48;;;;;;;2.05;1.65;;;24.40;48.50;;;;;;5001273;28;20105;-48
2023/09/16 04:48:16;;;;;;;4.63;1.63;;;24.40;48.50;;;;;;5009812;28;20325;-49
2023/09/16 04:50:46;;;;;;;1.90;1.60;;;24.40;48.50;;;;;;5020421;28;20029;-53
2023/09/16 04:53:12;;;;;;;2.35;1.60;;;24.40;48.50;;;;;;5021116;28;20033;-56
2023/09/16 04:55:41;;;;;;;2.25;1.52;;;24.40;48.50;;;;;;5018453;28;20116;-54
2023/09/16 04:58:07;;;;;;;2.15;1.58;;;24.40;48.50;;;;;;5015879;28;21634;-54
2023/09/16 05:00:33;;;;;;;2.22;1.65;;;24.40;48.50;;;;;;5018838;28;20048;-56
2023/09/16 05:03:02;;;;;;;2.67;1.80;;;24.40;48.50;;;;;;5021259;28;20109;-53
2023/09/16 05:05:29;;;;;;;2.58;2.00;;;24.40;48.50;;;;;;5036398;28;20718;-51
2023/09/16 05:07:55;;;;;;;3.95;1.50;;;24.40;48.50;;;;;;5012428;28;20098;-51
2023/09/16 05:10:21;;;;;;;2.33;1.80;;;24.40;48.50;;;;;;5018263;28;20029;-50
2023/09/16 05:12:47;;;;;;;2.30;1.92;;;24.40;48.50;;;;;;5016962;28;20026;-52
2023/09/16 05:15:13;;;;;;;2.10;1.80;;;24.40;48.60;;;;;;5018188;28;20038;-53
2023/09/16 05:17:40;;;;;;;2.50;1.90;;;24.40;48.60;;;;;;5011269;28;20045;-54
2023/09/16 05:20:07;;;;;;;2.22;1.80;;;24.40;48.60;;;;;;5037712;28;20025;-53
2023/09/16 05:22:34;;;;;;;2.63;2.00;;;24.40;48.60;;;;;;5013832;28;20157;-50
2023/09/16 05:25:05;;;;;;;2.30;1.75;;;24.40;49.20;;;;;;5041176;28;20168;-49
2023/09/16 05:27:31;;;;;;;2.47;1.80;;;24.40;48.60;;;;;;5004540;28;20021;-51
2023/09/16 05:29:57;;;;;;;2.33;1.45;;;24.40;48.60;;;;;;5013789;28;20107;-53
2023/09/16 05:32:24;;;;;;;2.53;1.98;;;24.40;48.60;;;;;;5010127;28;20116;-50
2023/09/16 05:34:51;;;;;;;2.78;1.70;;;24.40;48.60;;;;;;5015321;28;20048;-48
2023/09/16 05:37:17;;;;;;;1.73;1.48;;;24.40;48.60;;;;;;5017273;28;20094;-51
2023/09/16 05:39:43;;;;;;;3.05;1.92;;;24.40;48.60;;;;;;5019778;28;20042;-52
2023/09/16 05:42:10;;;;;;;3.03;1.98;;;24.40;48.60;;;;;;5011214;28;20050;-53
2023/09/16 05:44:36;;;;;;;2.92;1.88;;;24.40;48.60;;;;;;5020390;28;20030;-49
2023/09/16 05:47:03;;;;;;;2.40;1.70;;;24.40;48.60;;;;;;5010426;28;20454;-53
2023/09/16 05:49:29;;;;;;;2.42;1.77;;;24.40;48.60;;;;;;5012860;28;20125;-46
2023/09/16 05:51:55;;;;;;;2.65;2.00;;;24.40;48.60;;;;;;5014535;28;20298;-47
2023/09/16 05:54:22;;;;;;;2.45;1.75;;;24.40;48.60;;;;;;5012588;28;20040;-48
2023/09/16 05:56:49;;;;;;;2.53;1.77;;;24.40;48.60;;;;;;5006656;28;20021;-53
2023/09/16 05:59:15;;;;;;;2.17;1.98;;;24.40;48.70;;;;;;5010226;28;20125;-50
2023/09/16 06:01:41;;;;;;;3.25;1.80;;;24.40;48.60;;;;;;5007183;28;20094;-55
2023/09/16 06:04:10;;;;;;;2.03;1.60;;;24.40;48.70;;;;;;5012737;28;20082;-52
2023/09/16 06:06:36;;;;;;;1.90;1.60;;;24.40;48.70;;;;;;5007470;28;20344;-51
2023/09/16 06:09:04;;;;;;;2.35;1.98;;;24.40;48.70;;;;;;5024093;28;20045;-55
2023/09/16 06:11:30;;;;;;;1.98;1.77;;;24.40;48.70;;;;;;5010918;28;20022;-54
2023/09/16 06:13:57;;;;;;;2.05;1.77;;;24.40;48.70;;;;;;5009433;28;20129;-51
2023/09/16 06:16:23;;;;;;;2.58;1.88;;;24.40;48.80;;;;;;5010583;28;20108;-47
2023/09/16 06:18:49;;;;;;;2.42;1.80;;;24.40;48.80;;;;;;5023054;28;20117;-55
2023/09/16 06:21:18;;;;;;;2.05;1.70;;;24.40;48.80;;;;;;5007592;28;20038;-49
2023/09/16 06:23:45;;;;;;;2.67;2.00;;;24.40;48.80;;;;;;5011066;28;20045;-46
2023/09/16 06:26:11;;;;;;;2.70;1.90;;;24.40;48.80;;;;;;5009396;28;20128;-49
2023/09/16 06:28:39;;;;;;;2.35;1.67;;;24.40;48.80;;;;;;5011805;28;20124;-51
2023/09/16 06:31:05;;;;;;;2.17;1.73;;;24.40;48.90;;;;;;5008808;28;20038;-52
2023/09/16 06:33:34;;;;;;;3.20;1.95;;;24.40;48.90;;;;;;5011356;28;20111;-52
2023/09/16 06:36:00;;;;;;;3.92;1.80;;;24.40;49.00;;;;;;5023821;28;20884;-49
2023/09/16 06:38:27;;;;;;;2.92;2.58;;;24.40;49.10;;;;;;5008785;28;20029;-48
2023/09/16 06:40:53;;;;;;;2.95;2.40;;;24.40;49.10;;;;;;5005392;28;20125;-54
2023/09/16 06:43:19;;;;;;;2.88;2.17;;;24.40;49.10;;;;;;5003124;28;20049;-54
2023/09/16 06:45:47;;;;;;;2.67;1.88;;;24.40;49.10;;;;;;5016863;28;20466;-54
2023/09/16 06:48:13;;;;;;;3.15;1.98;;;24.40;49.10;;;;;;5017269;28;20056;-55
2023/09/16 06:50:39;;;;;;;3.58;1.90;;;24.40;49.10;;;;;;5031182;28;20017;-50
2023/09/16 06:53:05;;;;;;;3.00;1.88;;;24.40;49.10;;;;;;5034236;28;20025;-50
2023/09/16 06:55:31;;;;;;;4.50;2.05;;;24.40;49.20;;;;;;5009743;28;20394;-54
2023/09/16 06:57:57;;;;;;;3.13;2.17;;;24.40;49.20;;;;;;5033835;28;20109;-50
2023/09/16 07:00:23;;;;;;;2.30;2.03;;;24.40;49.20;;;;;;5033038;28;20037;-52
2023/09/16 07:02:49;;;;;;;2.08;1.75;;;24.40;49.20;;;;;;5032166;28;20048;-54
2023/09/16 07:05:14;;;;;;;3.25;2.08;;;24.40;49.30;;;;;;5014197;28;20033;-50
2023/09/16 07:07:41;;;;;;;2.45;1.80;;;24.40;49.30;;;;;;5029186;28;20025;-50
2023/09/16 07:10:07;;;;;;;2.90;2.25;;;24.40;49.90;;;;;;5011726;28;20040;-51
2023/09/16 07:12:33;;;;;;;2.80;2.10;;;24.40;49.40;;;;;;5027368;28;20048;-46
2023/09/16 07:14:59;;;;;;;2.15;1.95;;;24.40;49.40;;;;;;5031550;28;20029;-52
2023/09/16 07:17:25;;;;;;;3.88;1.90;;;24.40;49.50;;;;;;5026375;28;20422;-51
2023/09/16 07:19:51;;;;;;;2.83;1.90;;;24.40;49.50;;;;;;5024719;28;20144;-51
2023/09/16 07:22:18;;;;;;;3.75;2.10;;;24.40;49.60;;;;;;5028586;28;20065;-55
2023/09/16 07:24:44;;;;;;;2.30;2.00;;;24.40;49.70;;;;;;5030138;28;20144;-52
2023/09/16 07:27:10;;;;;;;3.05;1.85;;;24.40;49.70;;;;;;5031665;28;20026;-49
2023/09/16 07:29:35;;;;;;;2.83;1.90;;;24.40;49.80;;;;;;5027075;28;20117;-54
2023/09/16 07:32:01;;;;;;;3.15;2.20;;;24.40;49.80;;;;;;5026048;28;20030;-52
2023/09/16 07:34:27;;;;;;;6.32;2.13;;;24.40;49.90;;;;;;5029776;28;20025;-49
2023/09/16 07:36:53;;;;;;;2.40;2.00;;;24.40;50.00;;;;;;5026813;28;20124;-49
2023/09/16 07:39:19;;;;;;;2.80;1.85;;;24.40;50.10;;;;;;5009626;28;20071;-48
2023/09/16 07:41:45;;;;;;;2.63;2.00;;;24.40;50.20;;;;;;5028568;28;20025;-51
2023/09/16 07:44:11;;;;;;;2.75;2.17;;;24.40;50.20;;;;;;5029083;28;20116;-48
2023/09/16 07:46:37;;;;;;;2.40;2.03;;;24.40;50.20;;;;;;5031574;28;20029;-48
2023/09/16 07:49:02;;;;;;;2.10;1.90;;;24.50;50.30;;;;;;5029617;28;20128;-54
2023/09/16 07:51:28;;;;;;;2.80;1.80;;;24.50;50.30;;;;;;5037112;28;20033;-55
2023/09/16 07:53:54;;;;;;;2.10;1.80;;;24.50;50.30;;;;;;4999162;28;20422;-55
2023/09/16 07:56:20;;;;;;;2.80;2.03;;;24.50;50.30;;;;;;5031697;28;20341;-52
2023/09/16 07:58:47;;;;;;;3.17;2.13;;;24.50;50.30;;;;;;5028191;28;20056;-49
2023/09/16 08:01:12;;;;;;;1.80;1.67;;;24.50;50.40;;;;;;5029501;28;20086;-52
2023/09/16 08:03:39;;;;;;;2.85;1.77;;;24.50;50.50;;;;;;5033203;28;20029;-54
2023/09/16 08:06:06;;;;;;;3.47;2.20;;;24.50;50.60;;;;;;5034563;28;20021;-54
2023/09/16 08:08:32;;;;;;;3.20;2.30;;;24.50;50.80;;;;;;5032824;28;20068;-53
2023/09/16 08:10:58;;;;;;;3.30;2.50;;;24.50;50.90;;;;;;5041398;28;20456;-52
2023/09/16 08:13:25;;;;;;;2.45;1.90;;;24.50;50.90;;;;;;5038927;28;20629;-50
2023/09/16 08:15:51;;;;;;;2.35;1.90;;;24.60;50.90;;;;;;5040179;28;20040;-49
2023/09/16 08:18:17;;;;;;;2.53;1.83;;;24.60;50.80;;;;;;5034432;28;20025;-52
2023/09/16 08:20:44;;;;;;;3.10;2.30;;;24.60;50.80;;;;;;5038210;28;20408;-50
2023/09/16 08:23:12;;;;;;;2.15;1.92;;;24.60;50.70;;;;;;5031537;28;20110;-49
2023/09/16 08:25:38;;;;;;;2.78;2.17;;;24.60;50.70;;;;;;5041836;28;20114;-50
2023/09/16 08:28:05;;;;;;;2.70;2.40;;;24.60;50.70;;;;;;5040597;28;20128;-48
2023/09/16 08:30:31;;;;;;;3.28;1.98;;;24.60;50.70;;;;;;5037098;28;20036;-45
2023/09/16 08:32:57;;;;;;;2.03;1.75;;;24.60;50.70;;;;;;5028918;28;20025;-50
2023/09/16 08:35:25;;;;;;;2.45;2.13;;;24.60;50.60;;;;;;5029473;28;20078;-49
2023/09/16 08:37:54;;;;;;;2.28;2.00;;;24.60;50.60;;;;;;5030817;28;20058;-53
2023/09/16 08:40:22;;;;;;;3.30;2.30;;;24.60;50.60;;;;;;5030108;28;20429;-50
2023/09/16 08:43:17;;;;;;;2.60;2.13;;;24.70;50.60;;;;;;5041480;28;20068;-54
2023/09/16 08:45:49;;;;;;;2.58;2.10;;;24.70;50.60;;;;;;5010968;28;20033;-51
2023/09/16 08:48:21;;;;;;;2.97;2.20;;;24.70;50.60;;;;;;5030117;28;20366;-52
2023/09/16 08:50:50;;;;;;;2.45;2.00;;;24.70;50.70;;;;;;5032623;28;20873;-56
2023/09/16 08:53:22;;;;;;;2.33;1.95;;;24.70;50.70;;;;;;5037761;28;20036;-56
2023/09/16 08:55:50;;;;;;;3.72;2.30;;;24.70;50.70;;;;;;4993823;28;20433;-54
2023/09/16 08:58:19;;;;;;;2.67;2.20;;;24.70;50.70;;;;;;5022546;28;20234;-50
2023/09/16 09:00:45;;;;;;;3.38;2.22;;;24.70;50.70;;;;;;5040608;28;20095;-53
2023/09/16 09:03:12;;;;;;;2.22;1.90;;;24.70;50.70;;;;;;5042666;28;20032;-49
2023/09/16 09:05:39;;;;;;;2.72;2.00;;;24.70;50.70;;;;;;5037888;28;20029;-50
2023/09/16 09:08:09;;;;;;;2.17;1.80;;;24.80;50.70;;;;;;5017310;28;20029;-51
2023/09/16 09:10:37;;;;;;;1.77;1.65;;;24.80;50.70;;;;;;5019679;28;20076;-53
2023/09/16 09:13:12;;;;;;;2.70;1.95;;;24.80;50.60;;;;;;5032170;28;20036;-53
2023/09/16 09:15:40;;;;;;;4.40;2.20;;;24.80;50.70;;;;;;5034195;28;20041;-51
2023/09/16 09:18:07;;;;;;;2.55;2.20;;;24.80;50.70;;;;;;5030668;28;20029;-54
2023/09/16 09:20:35;;;;;;;3.05;2.13;;;24.80;50.70;;;;;;5034158;28;20558;-50
2023/09/16 09:23:02;;;;;;;3.15;2.53;;;24.80;50.70;;;;;;5039701;28;20071;-53
2023/09/16 09:25:31;;;;;;;3.42;2.08;;;24.80;50.70;;;;;;5041095;28;20348;-52
2023/09/16 09:27:57;;;;;;;5.55;2.10;;;24.80;50.70;;;;;;5043700;28;20467;-52
2023/09/16 09:30:27;;;;;;;3.42;2.13;;;24.80;50.70;;;;;;5027792;28;20036;-53
2023/09/16 09:32:56;;;;;;;2.33;2.08;;;24.90;50.80;;;;;;5040235;28;20413;-53
2023/09/16 09:35:27;;;;;;;3.22;2.10;;;24.80;50.70;;;;;;5044364;28;20043;-52
2023/09/16 09:37:53;;;;;;;3.72;2.10;;;24.80;50.70;;;;;;5024925;28;20373;-52
2023/09/16 09:40:19;;;;;;;3.13;1.90;;;24.90;50.70;;;;;;5029258;28;20029;-53
2023/09/16 09:42:51;;;;;;;4.40;2.20;;;24.90;50.70;;;;;;5028851;28;20439;-52
2023/09/16 09:45:20;;;;;;;2.35;1.80;;;24.90;50.70;;;;;;5043608;28;20159;-53
2023/09/16 09:47:52;;;;;;;5.55;2.20;;;24.90;50.80;;;;;;5040056;28;20380;-55
2023/09/16 09:50:30;;;;;;;2.55;2.00;;;24.90;50.80;;;;;;5039974;28;20035;-55
2023/09/16 09:53:05;;;;;;;2.78;1.88;;;25.00;50.70;;;;;;5005927;28;20045;-49
2023/09/16 09:55:41;;;;;;;2.50;1.73;;;25.10;50.60;;;;;;5037583;28;20048;-52
2023/09/16 09:58:11;;;;;;;2.53;1.88;;;25.10;50.50;;;;;;5039226;28;20044;-49
2023/09/16 10:00:51;;;;;;;3.28;2.30;;;25.10;50.40;;;;;;5022605;28;20204;-50
2023/09/16 10:03:21;;;;;;;2.88;2.20;;;25.10;50.30;;;;;;5041246;28;20320;-50
2023/09/16 10:05:55;;;;;;;2.22;1.63;;;25.10;50.30;;;;;;5038769;28;20337;-49
2023/09/16 10:08:25;;;;;;;2.93;1.90;;;25.10;50.20;;;;;;5015986;28;20033;-51
2023/09/16 10:10:58;;;;;;;3.63;2.20;;;25.20;50.10;;;;;;5025765;28;20102;-49
2023/09/16 10:13:30;;;;;;;2.58;2.13;;;25.20;50.00;;;;;;5040529;28;20037;-49
2023/09/16 10:16:05;;;;;;;2.47;1.83;;;25.20;49.90;;;;;;5042277;28;20029;-55
2023/09/16 10:18:34;;;;;;;2.83;2.05;;;25.10;49.70;;;;;;5035361;28;20026;-49
2023/09/16 10:21:07;;;;;;;2.78;2.10;;;25.20;49.60;;;;;;5024918;28;20041;-53
2023/09/16 10:23:37;;;;;;;2.42;1.90;;;25.20;49.50;;;;;;5020176;28;20052;-50
2023/09/16 10:26:14;;;;;;;1.92;1.70;;;25.20;49.50;;;;;;5037666;28;20037;-49
2023/09/16 10:28:49;;;;;;;4.63;1.90;;;25.20;49.40;;;;;;5038930;28;20057;-49
2023/09/16 10:31:20;;;;;;;2.60;2.00;;;25.20;49.30;;;;;;5034543;28;20309;-51
2023/09/16 10:33:53;;;;;;;2.50;1.70;;;25.20;49.20;;;;;;5038900;28;20381;-52
2023/09/16 10:36:25;;;;;;;1.73;1.48;;;25.20;49.10;;;;;;5037629;28;20679;-48
2023/09/16 10:38:55;;;;;;;2.95;1.83;;;25.20;49.00;;;;;;5027028;28;20052;-51
2023/09/16 10:41:30;;;;;;;2.35;1.77;;;25.20;48.90;;;;;;5032328;28;20117;-54
2023/09/16 10:43:58;;;;;;;2.58;1.75;;;25.30;48.90;;;;;;5029583;28;20036;-56
2023/09/16 10:46:25;;;;;;;3.35;1.63;;;25.30;48.80;;;;;;5028248;28;20055;-54
2023/09/16 10:48:51;;;;;;;2.00;1.55;;;25.30;48.60;;;;;;5029892;28;20046;-55
2023/09/16 10:51:25;;;;;;;2.45;1.73;;;25.30;48.60;;;;;;5027526;28;20038;-53
2023/09/16 10:53:57;;;;;;;;;;;25.30;48.60;;;;;;5030603;28;20042;-55
2023/09/16 10:56:29;;;;;;;2.20;1.38;;;25.30;48.60;;;;;;5039886;28;19920;-55
2023/09/16 10:59:10;;;;;;;2.67;1.45;;;25.30;48.60;;;;;;5029290;28;20507;-54
2023/09/16 11:01:48;;;;;;;2.00;1.58;;;25.30;48.50;;;;;;5026910;28;20052;-52
2023/09/16 11:04:18;;;;;;;2.25;1.45;;;25.30;48.30;;;;;;5026256;28;20056;-56
2023/09/16 11:06:48;;;;;;;2.33;1.50;;;25.30;48.20;;;;;;5028488;28;20571;-52
2023/09/16 11:09:17;;;;;;;2.22;1.60;;;25.30;48.20;;;;;;5033658;28;20048;-54
2023/09/16 11:11:44;;;;;;;1.98;1.38;;;25.30;48.20;;;;;;5012590;28;20051;-51
2023/09/16 11:14:11;;;;;;;1.80;1.50;;;25.30;48.20;;;;;;5031429;28;20029;-54
2023/09/16 11:16:50;;;;;;;1.48;1.02;;;25.40;48.30;;;;;;5029514;28;20108;-55
2023/09/16 11:19:22;;;;;;;1.70;1.20;;;25.30;48.30;;;;;;5026201;28;20116;-50
2023/09/16 11:21:48;;;;;;;1.80;1.23;;;25.40;48.60;;;;;;5029205;28;20048;-54
2023/09/16 11:24:14;;;;;;;1.80;1.40;;;25.40;48.60;;;;;;5029726;28;20055;-63
2023/09/16 11:26:40;;;;;;;1.65;1.20;;;25.50;48.70;;;;;;5030288;28;20034;-67
2023/09/16 11:29:21;;;;;;;1.58;1.23;;;25.50;48.60;;;;;;5029932;28;20040;-60
2023/09/16 11:31:47;;;;;;;1.48;1.20;;;25.50;48.50;;;;;;5001923;28;20168;-57
2023/09/16 11:34:22;;;;;;;1.30;1.20;;;25.60;48.50;;;;;;5029586;28;20189;-60
2023/09/16 11:36:54;;;;;;;2.20;1.58;;;25.70;48.50;;;;;;5029536;28;20028;-57
2023/09/16 11:39:42;;;;;;;1.65;1.23;;;25.70;48.40;;;;;;5018275;28;20332;-55
2023/09/16 11:42:10;;;;;;;1.27;1.15;;;25.80;48.30;;;;;;5009559;28;20040;-60
2023/09/16 11:44:45;;;;;;;1.55;1.17;;;25.90;48.30;;;;;;5034199;28;20036;-59
2023/09/16 11:47:15;;;;;;;3.33;1.48;;;26.00;48.40;;;;;;5031983;28;20041;-57
2023/09/16 11:49:45;;;;;;;1.85;1.63;;;26.00;48.40;;;;;;5022097;28;20045;-63
2023/09/16 11:52:14;;;;;;;2.13;1.60;;;26.10;48.50;;;;;;5032297;28;20018;-57
2023/09/16 11:54:46;;;;;;;2.67;1.70;;;26.20;48.60;;;;;;5032918;28;20325;-61
2023/09/16 11:57:15;;;;;;;1.67;1.30;;;26.20;48.50;;;;;;5030310;28;20032;-59
2023/09/16 11:59:54;;;;;;;1.63;1.40;;;26.40;48.60;;;;;;5035575;28;20124;-61
2023/09/16 12:02:23;;;;;;;2.28;1.48;;;26.40;48.60;;;;;;5030986;28;20034;-61
2023/09/16 12:04:51;;;;;;;2.60;1.70;;;26.40;48.50;;;;;;5021476;28;20087;-61
2023/09/16 12:07:19;;;;;;;2.70;1.70;;;26.50;48.60;;;;;;5032394;28;20131;-62
2023/09/16 12:09:48;;;;;;;2.72;1.60;;;26.60;48.50;;;;;;5032379;28;20064;-61
2023/09/16 12:12:16;;;;;;;2.53;1.80;;;26.60;48.40;;;;;;5030447;28;20033;-64
2023/09/16 12:14:45;;;;;;;2.15;1.65;;;26.70;48.40;;;;;;5031784;28;20033;-64
2023/09/16 12:17:15;;;;;;;1.80;1.52;;;26.70;48.30;;;;;;5031703;28;20310;-59
2023/09/16 12:19:52;;;;;;;1.60;1.50;;;26.70;48.30;;;;;;4998071;28;20079;-63
2023/09/16 12:22:19;;;;;;;1.80;1.60;;;26.80;48.20;;;;;;5029695;28;20183;-63
2023/09/16 12:24:45;;;;;;;2.08;1.63;;;26.80;48.80;;;;;;5034672;28;20092;-56
2023/09/16 12:27:13;;;;;;;2.10;1.70;;;26.80;48.20;;;;;;5012553;28;20025;-60
2023/09/16 12:29:44;;;;;;;2.95;1.70;;;26.90;48.10;;;;;;5038322;28;20021;-56
2023/09/16 12:32:12;;;;;;;2.67;1.80;;;26.90;48.10;;;;;;5053505;28;20500;-59
2023/09/16 12:34:42;;;;;;;1.63;1.50;;;26.90;48.00;;;;;;5047782;28;20029;-61
2023/09/16 12:37:08;;;;;;;2.20;1.60;;;26.90;48.00;;;;;;5051643;28;20020;-56
2023/09/16 12:39:35;;;;;;;1.95;1.48;;;26.90;47.90;;;;;;5054117;28;20099;-61
2023/09/16 12:42:03;;;;;;;1.70;1.48;;;26.90;47.70;;;;;;5045496;28;20053;-61
2023/09/16 12:44:33;;;;;;;1.98;1.60;;;27.00;47.50;;;;;;5039331;28;20318;-59
2023/09/16 12:46:59;;;;;;;1.48;1.30;;;27.00;47.20;;;;;;5039388;28;20108;-63
2023/09/16 12:49:27;;;;;;;2.00;1.35;;;27.00;47.00;;;;;;5036832;28;20137;-64
2023/09/16 12:51:55;;;;;;;2.17;1.70;;;27.00;46.70;;;;;;5023953;28;20086;-54